Time;durP1;ratioP1;P1;durP2;ratioP2;P2;SDS_P1;SDS_P2;PMS_P1;PMS_P2;Temp;Humidity;BMP_temperature;BMP_pressure;BME280_temperature;BME280_humidity;BME280_pressure;Samples;Min_cycle;Max_cycle;Signal;HPM_P1;HPM_P2
2021/12/23 10:01:43;;;;;;;213.45;63.63;;;10.20;99.90;;;;;;2614103;54;20367;-70
2021/12/23 10:04:10;;;;;;;212.90;61.08;;;0.60;99.90;;;;;;2615955;54;20531;-71
2021/12/23 10:06:35;;;;;;;219.82;60.75;;;0.20;99.90;;;;;;2616183;54;20035;-70
2021/12/23 10:09:03;;;;;;;208.98;60.05;;;0.10;99.90;;;;;;2615614;54;20039;-71
2021/12/23 10:11:47;;;;;;;208.77;60.17;;;0.10;99.90;;;;;;2616426;54;20031;-72
2021/12/23 10:31:49;;;;;;;218.82;61.42;;;0.10;99.90;;;;;;2615080;54;20034;-68
2021/12/23 10:37:23;;;;;;;231.40;63.58;;;0.10;99.90;;;;;;2615405;51;20055;-70
2021/12/23 10:40:07;;;;;;;210.38;60.33;;;0.10;99.90;;;;;;2615520;39;20435;-71
2021/12/23 10:42:33;;;;;;;201.20;61.10;;;0.10;99.90;;;;;;2616424;54;20026;-71
2021/12/23 10:45:13;;;;;;;222.43;62.90;;;0.10;99.90;;;;;;2615608;54;20767;-71
2021/12/23 10:48:00;;;;;;;214.57;61.97;;;0.10;99.90;;;;;;2615589;47;20027;-69
2021/12/23 10:53:05;;;;;;;199.38;61.40;;;0.20;99.90;;;;;;2616009;54;20154;-70
2021/12/23 10:58:17;;;;;;;247.10;65.45;;;0.20;99.90;;;;;;2615862;54;20054;-69
2021/12/23 11:00:55;;;;;;;237.95;66.28;;;0.20;99.90;;;;;;2615990;47;20022;-69
2021/12/23 11:03:39;;;;;;;234.10;63.00;;;0.10;99.90;;;;;;2616664;54;20530;-69
2021/12/23 11:11:32;;;;;;;233.75;64.97;;;0.40;99.90;;;;;;2616114;54;20038;-70
2021/12/23 11:43:49;;;;;;;286.05;67.55;;;0.30;99.90;;;;;;2615609;54;20153;-68
2021/12/23 11:46:23;;;;;;;256.80;67.00;;;0.30;99.90;;;;;;2616337;54;20087;-69
2021/12/23 11:48:53;;;;;;;223.32;62.60;;;0.30;99.90;;;;;;2615920;54;20569;-69
2021/12/23 11:52:05;;;;;;;269.58;65.63;;;0.20;99.90;;;;;;2616237;54;20071;-67
2021/12/23 11:54:16;;;;;;;274.73;66.53;;;0.30;99.90;;;;;;2615654;39;20384;-69
2021/12/23 11:56:50;;;;;;;243.82;64.68;;;0.40;99.90;;;;;;2616586;39;20575;-68
2021/12/23 11:59:17;;;;;;;249.55;64.00;;;0.40;99.90;;;;;;2616120;54;20045;-68
2021/12/23 12:01:49;;;;;;;290.48;65.90;;;0.30;99.90;;;;;;2615804;54;20031;-69
2021/12/23 12:04:28;;;;;;;296.08;69.65;;;0.40;99.90;;;;;;2616239;54;20035;-68
2021/12/23 12:06:56;;;;;;;252.98;64.32;;;0.30;99.90;;;;;;2615667;47;20553;-68
2021/12/23 12:09:26;;;;;;;244.40;63.35;;;0.30;99.90;;;;;;2616598;54;20117;-68
2021/12/23 12:12:08;;;;;;;275.70;66.05;;;0.30;99.90;;;;;;2615609;54;20150;-69
2021/12/23 12:14:40;;;;;;;264.88;65.20;;;0.30;99.90;;;;;;2616464;54;20027;-69
2021/12/23 12:17:33;;;;;;;259.30;64.18;;;0.40;99.90;;;;;;2615867;54;20109;-69
2021/12/23 12:20:01;;;;;;;242.02;63.00;;;0.40;99.90;;;;;;2615551;39;20422;-69
2021/12/23 12:22:45;;;;;;;258.20;65.03;;;0.50;99.90;;;;;;2615103;54;20066;-69
2021/12/23 12:25:23;;;;;;;277.55;65.25;;;0.40;99.90;;;;;;2616294;54;20034;-69
2021/12/23 12:27:55;;;;;;;247.40;63.72;;;0.40;99.90;;;;;;2615121;54;20056;-68
2021/12/23 12:30:56;;;;;;;298.70;66.75;;;0.40;99.90;;;;;;2616150;54;20068;-69
2021/12/23 12:33:25;;;;;;;252.63;63.20;;;0.40;99.90;;;;;;2615893;54;20030;-69
2021/12/23 12:36:03;;;;;;;249.40;63.30;;;0.40;99.90;;;;;;2615575;54;20041;-68
2021/12/23 12:38:39;;;;;;;222.15;59.80;;;0.40;99.90;;;;;;2616103;47;20030;-69
2021/12/23 12:41:16;;;;;;;217.35;60.65;;;0.50;99.90;;;;;;2614984;54;20027;-69
2021/12/23 12:44:00;;;;;;;210.75;59.00;;;0.50;99.90;;;;;;2615848;54;20038;-69
2021/12/23 12:49:09;;;;;;;220.90;60.03;;;0.60;99.90;;;;;;2615111;54;20058;-68
2021/12/23 12:51:37;;;;;;;291.30;64.85;;;0.60;99.90;;;;;;2616319;39;20895;-68
2021/12/23 12:54:15;;;;;;;262.88;63.33;;;0.60;99.90;;;;;;2615462;54;20529;-68
2021/12/23 12:56:47;;;;;;;280.38;64.72;;;0.60;99.90;;;;;;2615670;39;20403;-67
2021/12/23 12:59:15;;;;;;;248.03;63.20;;;0.60;99.90;;;;;;2615363;54;20130;-69
2021/12/23 13:01:47;;;;;;;253.90;63.13;;;0.60;99.90;;;;;;2615959;51;20390;-68
2021/12/23 13:04:34;;;;;;;239.02;62.38;;;0.70;99.90;;;;;;2615172;54;20038;-69
2021/12/23 13:07:22;;;;;;;267.50;63.47;;;0.70;99.90;;;;;;2615291;54;20038;-69
2021/12/23 13:09:59;;;;;;;262.02;66.97;;;0.70;99.90;;;;;;2615907;54;20046;-68
2021/12/23 13:12:43;;;;;;;328.75;67.40;;;0.80;99.90;;;;;;2616498;47;20133;-69
2021/12/23 13:15:19;;;;;;;249.10;64.22;;;0.80;99.90;;;;;;2616473;54;20027;-68
2021/12/23 13:18:00;;;;;;;246.25;62.65;;;0.80;99.90;;;;;;2616787;39;20368;-68
2021/12/23 13:20:45;;;;;;;271.65;65.82;;;0.80;99.90;;;;;;2616169;54;20129;-69
2021/12/23 13:23:33;;;;;;;267.50;64.63;;;0.90;99.90;;;;;;2615756;54;20038;-69
2021/12/23 13:26:02;;;;;;;233.13;63.22;;;1.00;99.90;;;;;;2616441;54;20033;-68
2021/12/23 13:28:43;;;;;;;289.95;68.45;;;0.90;99.90;;;;;;2616570;54;20038;-68
2021/12/23 13:31:31;;;;;;;287.70;66.18;;;1.00;99.90;;;;;;2616207;54;20069;-68
2021/12/23 13:34:06;;;;;;;280.20;67.30;;;1.00;99.90;;;;;;2615183;54;20034;-68
2021/12/23 13:36:39;;;;;;;316.08;68.25;;;1.00;99.90;;;;;;2616552;54;20054;-67
2021/12/23 13:39:14;;;;;;;351.17;69.82;;;1.00;99.90;;;;;;2615964;54;20039;-68
2021/12/23 13:41:46;;;;;;;275.75;64.47;;;1.10;99.90;;;;;;2616248;54;20041;-69
2021/12/23 13:44:15;;;;;;;276.55;66.05;;;1.20;99.90;;;;;;2616048;54;20045;-68
2021/12/23 13:46:53;;;;;;;296.70;66.70;;;1.10;99.90;;;;;;2616677;54;20053;-68
2021/12/23 13:49:29;;;;;;;269.45;67.15;;;1.10;99.90;;;;;;2616217;46;20042;-67
2021/12/23 13:51:55;;;;;;;268.17;64.72;;;1.10;99.90;;;;;;2616177;54;20530;-68
2021/12/23 13:54:21;;;;;;;255.90;64.30;;;1.10;99.90;;;;;;2615342;47;20035;-68
2021/12/23 13:56:50;;;;;;;223.07;62.03;;;1.10;99.90;;;;;;2616247;54;20075;-68
2021/12/23 13:59:22;;;;;;;254.55;61.83;;;1.20;99.90;;;;;;2615767;54;20418;-68
2021/12/23 14:02:04;;;;;;;232.75;62.10;;;1.30;99.90;;;;;;2616378;54;20038;-67
2021/12/23 14:04:32;;;;;;;232.95;63.70;;;1.30;99.90;;;;;;2615309;46;20092;-67
2021/12/23 14:06:58;;;;;;;226.40;61.25;;;1.70;99.90;;;;;;2616561;39;20494;-68
2021/12/23 14:09:43;;;;;;;213.75;61.05;;;1.50;99.90;;;;;;2616883;39;20411;-67
2021/12/23 14:12:12;;;;;;;232.60;61.88;;;1.50;99.90;;;;;;2615840;54;20038;-67
2021/12/23 14:14:56;;;;;;;264.75;65.38;;;1.50;99.90;;;;;;2615933;54;20042;-68
2021/12/23 14:17:24;;;;;;;239.50;63.53;;;1.60;99.90;;;;;;2616484;47;20047;-68
2021/12/23 14:23:12;;;;;;;238.40;63.10;;;1.60;99.90;;;;;;2616774;39;20432;-68
2021/12/23 14:25:32;;;;;;;260.30;64.53;;;1.60;99.90;;;;;;2615863;54;20049;-67
2021/12/23 14:27:58;;;;;;;229.98;62.45;;;1.70;99.90;;;;;;2615769;54;20038;-68
2021/12/23 14:30:41;;;;;;;252.43;63.85;;;1.70;99.90;;;;;;2616678;39;20413;-68
2021/12/23 14:33:13;;;;;;;220.48;58.72;;;1.70;99.90;;;;;;2616087;54;20574;-68
2021/12/23 14:35:40;;;;;;;217.43;58.70;;;1.70;99.90;;;;;;2615814;54;20066;-69
2021/12/23 14:38:06;;;;;;;202.95;57.80;;;1.70;99.90;;;;;;2616101;54;20273;-69
2021/12/23 14:40:32;;;;;;;250.80;62.55;;;1.70;99.90;;;;;;2615529;46;20625;-69
2021/12/23 14:43:02;;;;;;;226.82;59.55;;;1.70;99.90;;;;;;2616038;54;20087;-69
2021/12/23 14:45:29;;;;;;;230.23;61.03;;;1.70;99.90;;;;;;2616861;39;20403;-69
2021/12/23 14:48:11;;;;;;;251.88;61.90;;;1.80;99.90;;;;;;2615718;54;20145;-68
2021/12/23 14:50:49;;;;;;;213.55;58.65;;;1.80;99.90;;;;;;2616052;46;20038;-68
2021/12/23 14:53:21;;;;;;;205.63;58.38;;;1.90;99.90;;;;;;2615612;54;20122;-68
2021/12/23 14:55:58;;;;;;;212.87;61.70;;;1.90;99.90;;;;;;2615748;54;20038;-68
2021/12/23 14:58:24;;;;;;;221.15;59.90;;;1.90;99.90;;;;;;2615050;54;20031;-68
2021/12/23 15:00:53;;;;;;;211.23;60.40;;;1.90;99.90;;;;;;2615288;54;20038;-69
2021/12/23 15:03:25;;;;;;;203.02;58.53;;;2.00;99.90;;;;;;2616100;54;20042;-68
2021/12/23 15:05:54;;;;;;;197.07;60.03;;;2.00;99.90;;;;;;2616005;54;20038;-68
2021/12/23 15:08:27;;;;;;;240.40;61.70;;;2.10;99.90;;;;;;2615904;54;20054;-68
2021/12/23 15:10:55;;;;;;;211.48;60.00;;;2.10;99.90;;;;;;2615813;54;20030;-68
2021/12/23 15:13:28;;;;;;;195.25;58.20;;;2.10;99.90;;;;;;2615757;54;20030;-69
2021/12/23 15:15:58;;;;;;;201.30;59.70;;;2.20;99.90;;;;;;2616122;54;20034;-68
2021/12/23 15:18:39;;;;;;;210.75;60.45;;;2.30;99.90;;;;;;2616114;39;20529;-69
2021/12/23 15:21:10;;;;;;;198.25;59.38;;;2.30;99.90;;;;;;2615779;54;20117;-68
2021/12/23 15:23:38;;;;;;;191.07;57.45;;;2.30;99.90;;;;;;2616712;39;20419;-69
2021/12/23 15:26:19;;;;;;;186.65;57.42;;;2.30;99.90;;;;;;2615556;54;20034;-69
2021/12/23 15:29:03;;;;;;;193.35;58.35;;;2.40;99.90;;;;;;2615624;54;20031;-68
2021/12/23 15:31:29;;;;;;;203.13;59.03;;;2.40;99.90;;;;;;2616193;54;20033;-68
2021/12/23 15:33:54;;;;;;;201.50;59.15;;;2.50;99.90;;;;;;2615903;39;20345;-69
2021/12/23 15:36:21;;;;;;;216.50;60.17;;;2.50;99.90;;;;;;2615565;47;20031;-69
2021/12/23 15:38:47;;;;;;;218.90;61.13;;;2.50;99.90;;;;;;2616274;54;20026;-69
2021/12/23 15:41:12;;;;;;;188.60;58.67;;;2.50;99.90;;;;;;2615612;49;20181;-69
2021/12/23 15:43:38;;;;;;;217.00;64.43;;;2.60;99.90;;;;;;2615114;54;20544;-75
2021/12/23 15:46:04;;;;;;;243.93;65.72;;;2.60;99.90;;;;;;2615717;54;20027;-69
2021/12/23 15:48:32;;;;;;;225.07;63.35;;;2.70;99.90;;;;;;2615642;54;20105;-69
2021/12/23 15:51:00;;;;;;;202.32;61.30;;;2.70;99.90;;;;;;2615382;54;20034;-69
2021/12/23 15:53:26;;;;;;;230.20;64.32;;;2.80;99.90;;;;;;2615768;46;20140;-69
2021/12/23 15:55:56;;;;;;;206.05;59.92;;;2.80;99.90;;;;;;2616139;54;20097;-69
2021/12/23 15:58:22;;;;;;;221.88;62.35;;;2.80;99.90;;;;;;2615756;54;20038;-69
2021/12/23 16:00:48;;;;;;;213.65;63.58;;;2.80;99.90;;;;;;2615984;47;20566;-67
2021/12/23 16:03:15;;;;;;;220.20;64.97;;;2.80;99.90;;;;;;2615022;54;20041;-69
2021/12/23 16:08:07;;;;;;;214.45;64.30;;;2.90;99.90;;;;;;2615680;54;20031;-69
2021/12/23 16:10:33;;;;;;;259.65;67.55;;;2.90;99.90;;;;;;2615984;54;20042;-69
2021/12/23 16:13:00;;;;;;;282.92;69.65;;;2.90;99.90;;;;;;2615943;54;20038;-69
2021/12/23 16:15:26;;;;;;;260.20;69.28;;;3.00;99.90;;;;;;2615720;54;20046;-69
2021/12/23 16:17:52;;;;;;;277.08;72.43;;;3.00;99.90;;;;;;2615864;54;20076;-67
2021/12/23 16:20:21;;;;;;;268.17;70.53;;;3.00;99.90;;;;;;2615111;54;20584;-68
2021/12/23 16:22:46;;;;;;;253.27;68.50;;;3.00;99.90;;;;;;2615958;54;20072;-69
2021/12/23 16:25:13;;;;;;;251.75;68.93;;;3.00;99.90;;;;;;2614049;51;20039;-67
2021/12/23 16:27:39;;;;;;;266.73;71.95;;;3.10;99.90;;;;;;2615730;54;20143;-67
2021/12/23 16:30:15;;;;;;;264.85;69.15;;;3.10;99.90;;;;;;2616373;39;20340;-67
2021/12/23 16:32:45;;;;;;;239.80;69.82;;;3.10;99.90;;;;;;2615906;54;20046;-67
2021/12/23 16:35:14;;;;;;;287.30;73.07;;;3.10;99.90;;;;;;2615664;54;20034;-68
2021/12/23 16:37:41;;;;;;;275.88;73.85;;;3.10;99.90;;;;;;2615575;54;20081;-66
2021/12/23 16:40:11;;;;;;;295.40;74.75;;;3.10;99.90;;;;;;2616396;39;20413;-69
2021/12/23 16:42:39;;;;;;;269.95;73.10;;;3.20;99.90;;;;;;2615349;54;20145;-69
2021/12/23 16:45:05;;;;;;;281.40;76.05;;;3.20;99.90;;;;;;2616293;54;20035;-68
2021/12/23 16:47:32;;;;;;;311.40;79.90;;;3.20;99.90;;;;;;2616411;54;20035;-68
2021/12/23 16:49:58;;;;;;;350.20;79.35;;;3.20;99.90;;;;;;2616472;54;20609;-66
2021/12/23 16:52:24;;;;;;;353.58;81.13;;;3.30;99.90;;;;;;2616190;54;20122;-66
2021/12/23 16:54:55;;;;;;;321.95;79.32;;;3.40;99.90;;;;;;2616930;54;20038;-66
2021/12/23 16:57:37;;;;;;;341.17;80.82;;;3.40;99.90;;;;;;2615951;47;20063;-66
2021/12/23 17:00:06;;;;;;;315.67;80.25;;;3.40;99.90;;;;;;2615661;54;20038;-66
2021/12/23 17:02:32;;;;;;;375.70;85.95;;;3.40;99.90;;;;;;2616272;46;20058;-66
2021/12/23 17:04:58;;;;;;;412.40;84.95;;;3.40;99.90;;;;;;2616332;54;20035;-67
2021/12/23 17:07:24;;;;;;;449.55;89.15;;;3.50;99.90;;;;;;2616548;54;20039;-66
2021/12/23 17:09:50;;;;;;;416.75;86.90;;;3.50;99.90;;;;;;2616355;39;20495;-66
2021/12/23 17:12:16;;;;;;;405.30;87.00;;;3.50;99.90;;;;;;2616125;54;20045;-66
2021/12/23 17:14:43;;;;;;;429.50;90.53;;;3.50;99.90;;;;;;2616462;54;20030;-66
2021/12/23 17:17:09;;;;;;;405.40;89.47;;;3.60;99.90;;;;;;2616610;54;20046;-67
2021/12/23 17:19:36;;;;;;;402.77;88.53;;;3.60;99.90;;;;;;2615480;54;20538;-67
2021/12/23 17:22:02;;;;;;;479.98;93.57;;;3.60;99.90;;;;;;2616701;54;20026;-67
2021/12/23 17:24:31;;;;;;;474.52;92.93;;;3.70;99.90;;;;;;2616513;54;20041;-69
2021/12/23 17:27:05;;;;;;;473.35;94.57;;;3.70;99.90;;;;;;2616704;54;20039;-67
2021/12/23 17:29:32;;;;;;;533.25;93.65;;;3.70;99.90;;;;;;2616205;54;20042;-67
2021/12/23 17:31:58;;;;;;;466.02;90.75;;;3.70;99.90;;;;;;2616312;54;20055;-67
2021/12/23 17:34:25;;;;;;;480.77;91.15;;;3.80;99.90;;;;;;2615978;54;20034;-68
2021/12/23 17:36:51;;;;;;;492.33;94.18;;;3.70;99.90;;;;;;2615487;54;20039;-68
2021/12/23 17:39:18;;;;;;;468.35;91.40;;;3.80;99.90;;;;;;2616314;47;20586;-67
2021/12/23 17:41:44;;;;;;;506.40;95.95;;;3.80;99.90;;;;;;2616321;46;20070;-66
2021/12/23 17:44:10;;;;;;;455.88;92.13;;;3.80;99.90;;;;;;2615826;54;20164;-67
2021/12/23 17:46:36;;;;;;;485.27;93.57;;;3.80;99.90;;;;;;2615984;54;20039;-71
2021/12/23 17:49:03;;;;;;;434.63;90.45;;;3.90;99.90;;;;;;2615700;54;20046;-72
2021/12/23 17:51:31;;;;;;;479.55;87.95;;;3.80;99.90;;;;;;2615987;54;20038;-72
2021/12/23 17:53:57;;;;;;;469.50;91.43;;;3.90;99.90;;;;;;2616123;54;20640;-72
2021/12/23 17:56:23;;;;;;;477.27;91.70;;;3.80;99.90;;;;;;2616095;54;20030;-71
2021/12/23 17:58:49;;;;;;;442.33;87.53;;;3.80;99.90;;;;;;2616435;39;20420;-72
2021/12/23 18:01:17;;;;;;;442.55;86.75;;;3.90;99.90;;;;;;2616098;47;20031;-71
2021/12/23 18:03:43;;;;;;;406.25;86.57;;;3.90;99.90;;;;;;2614389;54;20037;-72
2021/12/23 18:06:09;;;;;;;406.33;84.70;;;3.90;99.90;;;;;;2615680;39;20416;-72
2021/12/23 18:08:37;;;;;;;334.55;80.82;;;3.90;99.90;;;;;;2616011;54;20078;-72
2021/12/23 18:11:03;;;;;;;436.67;85.30;;;3.90;99.90;;;;;;2616521;54;20027;-72
2021/12/23 18:13:29;;;;;;;425.45;84.47;;;3.90;99.90;;;;;;2615724;54;20052;-72
2021/12/23 18:15:57;;;;;;;404.58;82.93;;;3.90;99.90;;;;;;2616201;54;20045;-73
2021/12/23 18:18:23;;;;;;;372.27;82.22;;;3.90;99.90;;;;;;2615661;54;20035;-72
2021/12/23 18:20:50;;;;;;;432.73;85.55;;;3.90;99.90;;;;;;2615868;46;20038;-72
2021/12/23 18:23:16;;;;;;;399.80;84.05;;;3.90;99.90;;;;;;2616580;54;20046;-73
2021/12/23 18:25:44;;;;;;;426.25;85.47;;;3.90;99.90;;;;;;2616022;47;20463;-72
2021/12/23 18:28:11;;;;;;;387.67;83.55;;;3.90;99.90;;;;;;2616445;54;20072;-73
2021/12/23 18:30:38;;;;;;;430.42;84.13;;;3.90;99.90;;;;;;2615818;54;20030;-73
2021/12/23 18:33:05;;;;;;;444.48;85.63;;;3.90;99.90;;;;;;2616027;47;20430;-70
2021/12/23 18:35:36;;;;;;;377.58;83.20;;;3.90;99.90;;;;;;2615487;54;20038;-74
2021/12/23 18:38:06;;;;;;;411.60;84.18;;;3.90;99.90;;;;;;2616204;54;20038;-74
2021/12/23 18:40:38;;;;;;;394.67;81.88;;;3.90;99.90;;;;;;2615844;54;20073;-73
2021/12/23 18:43:07;;;;;;;415.60;82.83;;;3.90;99.90;;;;;;2615896;54;20035;-74
2021/12/23 18:45:33;;;;;;;377.70;79.78;;;3.90;99.90;;;;;;2616056;54;20074;-74
2021/12/23 18:48:00;;;;;;;360.63;77.10;;;3.90;99.90;;;;;;2615905;54;20030;-75
2021/12/23 18:50:30;;;;;;;319.60;73.20;;;3.90;99.90;;;;;;2615032;54;20585;-72
2021/12/23 18:52:58;;;;;;;330.17;75.40;;;4.00;99.90;;;;;;2615582;54;20523;-73
2021/12/23 18:55:25;;;;;;;303.33;73.95;;;4.00;99.90;;;;;;2615821;54;20037;-73
2021/12/23 18:57:51;;;;;;;342.13;75.95;;;4.00;99.90;;;;;;2615581;54;20050;-73
2021/12/23 19:00:23;;;;;;;342.40;75.30;;;4.00;99.90;;;;;;2616061;54;20565;-73
2021/12/23 19:05:26;;;;;;;344.27;74.20;;;4.00;99.90;;;;;;2615949;54;20054;-74
2021/12/23 19:07:53;;;;;;;329.83;70.43;;;4.10;99.90;;;;;;2615690;54;20541;-72
2021/12/23 19:10:20;;;;;;;358.52;71.90;;;4.10;99.90;;;;;;2615742;54;20030;-76
2021/12/23 19:12:46;;;;;;;336.10;71.50;;;4.10;99.90;;;;;;2614952;47;20031;-73
2021/12/23 19:15:13;;;;;;;373.25;74.65;;;4.10;99.90;;;;;;2615801;47;20059;-77
2021/12/23 19:17:39;;;;;;;321.35;69.90;;;4.10;99.90;;;;;;2615636;54;20459;-72
2021/12/23 19:20:06;;;;;;;390.08;76.63;;;4.10;99.90;;;;;;2614941;54;20806;-73
2021/12/23 19:22:37;;;;;;;339.92;71.75;;;4.10;99.90;;;;;;2615172;54;20065;-72
2021/12/23 19:25:09;;;;;;;346.02;71.40;;;4.10;99.90;;;;;;2614717;54;20031;-72
2021/12/23 19:27:35;;;;;;;425.70;73.72;;;4.10;99.90;;;;;;2613123;54;20569;-73
2021/12/23 19:30:04;;;;;;;343.83;72.28;;;4.20;99.90;;;;;;2614910;54;20038;-72
2021/12/23 19:32:30;;;;;;;304.80;70.00;;;4.10;99.90;;;;;;2615632;47;20030;-71
2021/12/23 19:34:56;;;;;;;372.15;74.40;;;4.20;99.90;;;;;;2614939;47;20586;-72
2021/12/23 19:37:22;;;;;;;399.65;74.90;;;4.20;99.90;;;;;;2615955;54;20066;-72
2021/12/23 19:39:48;;;;;;;393.60;76.57;;;4.20;99.90;;;;;;2615638;31;20534;-72
2021/12/23 19:42:14;;;;;;;400.17;76.53;;;4.20;99.90;;;;;;2615320;54;20031;-73
2021/12/23 19:44:40;;;;;;;367.33;75.15;;;4.20;99.90;;;;;;2615043;54;20117;-72
2021/12/23 19:47:06;;;;;;;394.77;77.22;;;4.30;99.90;;;;;;2615501;54;20042;-71
2021/12/23 19:49:33;;;;;;;415.10;77.13;;;4.30;99.90;;;;;;2614543;54;20054;-71
2021/12/23 19:51:59;;;;;;;317.20;72.15;;;4.30;99.90;;;;;;2614586;54;20067;-71
2021/12/23 19:54:29;;;;;;;378.67;72.90;;;4.30;99.90;;;;;;2615332;54;20031;-72
2021/12/23 19:56:59;;;;;;;322.83;67.82;;;4.30;99.90;;;;;;2615231;39;20188;-74
2021/12/23 19:59:27;;;;;;;410.25;75.47;;;4.30;99.90;;;;;;2615426;54;20054;-74
2021/12/23 20:01:54;;;;;;;361.48;72.65;;;4.30;99.90;;;;;;2615158;54;20038;-73
2021/12/23 20:04:21;;;;;;;400.75;74.15;;;4.30;99.90;;;;;;2615397;46;20042;-73
2021/12/23 20:06:47;;;;;;;418.30;75.38;;;4.30;99.90;;;;;;2615789;54;20030;-73
2021/12/23 20:09:13;;;;;;;346.60;74.78;;;4.30;99.90;;;;;;2615857;54;20130;-73
2021/12/23 20:11:40;;;;;;;438.55;78.55;;;4.30;99.90;;;;;;2615472;54;20035;-74
2021/12/23 20:14:05;;;;;;;463.83;84.68;;;4.30;99.90;;;;;;2616006;54;20033;-74
2021/12/23 20:16:33;;;;;;;393.80;77.75;;;4.30;99.90;;;;;;2615724;54;20543;-74
2021/12/23 20:19:02;;;;;;;429.30;80.25;;;4.30;99.90;;;;;;2613997;47;20038;-72
2021/12/23 20:21:31;;;;;;;329.65;72.78;;;4.30;99.90;;;;;;2614823;54;20061;-71
2021/12/23 20:23:57;;;;;;;347.70;73.78;;;4.30;99.90;;;;;;2615311;54;20061;-73
2021/12/23 20:26:23;;;;;;;389.77;75.45;;;4.30;99.90;;;;;;2615711;54;20046;-75
2021/12/23 20:28:49;;;;;;;325.42;70.47;;;4.30;99.90;;;;;;2615576;54;20030;-74
2021/12/23 20:31:15;;;;;;;343.88;70.95;;;4.30;99.90;;;;;;2615638;54;20145;-73
2021/12/23 20:33:41;;;;;;;366.08;72.10;;;4.30;99.90;;;;;;2615251;54;20039;-76
2021/12/23 20:36:07;;;;;;;304.65;70.40;;;4.30;99.90;;;;;;2615475;54;20057;-74
2021/12/23 20:38:33;;;;;;;312.88;70.10;;;4.30;99.90;;;;;;2615775;47;20527;-72
2021/12/23 20:41:00;;;;;;;331.02;70.03;;;4.30;99.90;;;;;;2615330;54;20063;-75
2021/12/23 20:43:27;;;;;;;310.15;69.25;;;4.30;99.90;;;;;;2616023;46;20062;-74
2021/12/23 20:45:52;;;;;;;301.73;66.78;;;4.30;99.90;;;;;;2615541;39;20528;-75
2021/12/23 20:48:18;;;;;;;363.77;69.80;;;4.30;99.90;;;;;;2614696;54;20086;-73
2021/12/23 20:50:45;;;;;;;369.25;73.07;;;4.30;99.90;;;;;;2615380;54;20038;-75
2021/12/23 20:53:23;;;;;;;360.10;70.68;;;4.30;99.90;;;;;;2615583;54;20642;-74
2021/12/23 20:55:49;;;;;;;341.45;68.82;;;4.30;99.90;;;;;;2615618;39;20423;-75
2021/12/23 20:58:17;;;;;;;403.50;73.68;;;4.30;99.90;;;;;;2615433;47;20035;-74
2021/12/23 21:00:45;;;;;;;375.83;71.70;;;4.40;99.90;;;;;;2614632;54;20555;-73
2021/12/23 21:03:14;;;;;;;405.08;70.72;;;4.40;99.90;;;;;;2615137;47;20118;-73
2021/12/23 21:05:40;;;;;;;361.20;68.90;;;4.40;99.90;;;;;;2614922;54;20046;-70
2021/12/23 21:08:07;;;;;;;383.00;69.55;;;4.50;99.90;;;;;;2615341;54;20158;-72
2021/12/23 21:10:33;;;;;;;385.00;68.47;;;4.50;99.90;;;;;;2615108;47;20038;-73
2021/12/23 21:12:59;;;;;;;316.02;65.93;;;4.50;99.90;;;;;;2614834;54;20038;-72
2021/12/23 21:15:31;;;;;;;341.30;65.75;;;4.60;99.90;;;;;;2615548;54;20051;-73
2021/12/23 21:17:57;;;;;;;346.30;66.65;;;4.50;99.90;;;;;;2615643;39;20427;-72
2021/12/23 21:20:24;;;;;;;365.65;67.03;;;4.60;99.90;;;;;;2615222;54;20038;-71
2021/12/23 21:22:50;;;;;;;389.27;66.32;;;4.60;99.90;;;;;;2614561;54;20617;-71
2021/12/23 21:25:17;;;;;;;328.25;65.60;;;4.60;99.90;;;;;;2615264;54;20045;-73
2021/12/23 21:27:43;;;;;;;387.30;71.18;;;4.60;99.90;;;;;;2614922;54;20535;-72
2021/12/23 21:30:11;;;;;;;377.05;69.57;;;4.70;99.90;;;;;;2615373;54;20056;-72
2021/12/23 21:32:38;;;;;;;368.95;67.97;;;4.70;99.90;;;;;;2616033;54;20038;-72
2021/12/23 21:35:05;;;;;;;398.48;68.10;;;4.70;99.90;;;;;;2615619;54;20031;-73
2021/12/23 21:37:31;;;;;;;377.20;66.70;;;4.70;99.90;;;;;;2615804;54;20061;-73
2021/12/23 21:40:00;;;;;;;315.35;61.97;;;4.70;99.90;;;;;;2615723;54;20038;-72
2021/12/23 21:42:30;;;;;;;399.05;65.40;;;4.70;99.90;;;;;;2616606;39;20436;-73
2021/12/23 21:44:57;;;;;;;327.52;65.25;;;4.70;99.90;;;;;;2615675;54;20061;-73
2021/12/23 21:47:24;;;;;;;330.42;65.85;;;4.80;99.90;;;;;;2615907;39;20454;-73
2021/12/23 21:49:52;;;;;;;352.58;64.65;;;4.80;99.90;;;;;;2615304;54;20053;-73
2021/12/23 21:52:20;;;;;;;316.65;59.97;;;4.70;99.90;;;;;;2615769;54;20042;-73
2021/12/23 21:54:57;;;;;;;317.23;60.67;;;4.80;99.90;;;;;;2615591;54;20038;-72
2021/12/23 21:57:23;;;;;;;271.08;57.65;;;4.80;99.90;;;;;;2616002;54;20557;-73
2021/12/23 21:59:49;;;;;;;228.75;57.45;;;4.80;99.90;;;;;;2615199;54;20052;-73
2021/12/23 22:02:15;;;;;;;316.38;60.35;;;4.80;99.90;;;;;;2616095;54;20545;-72
2021/12/23 22:04:41;;;;;;;278.30;57.47;;;4.90;99.90;;;;;;2615868;47;20122;-73
2021/12/23 22:07:07;;;;;;;336.30;58.67;;;4.90;99.90;;;;;;2615414;54;20038;-72
2021/12/23 22:09:33;;;;;;;270.95;55.67;;;4.90;99.90;;;;;;2616202;54;20045;-73
2021/12/23 22:11:59;;;;;;;267.17;57.88;;;4.90;99.90;;;;;;2615812;46;20034;-72
2021/12/23 22:14:25;;;;;;;276.35;54.70;;;4.90;99.90;;;;;;2616216;54;20038;-73
2021/12/23 22:16:51;;;;;;;277.50;54.88;;;5.00;99.90;;;;;;2615654;54;20566;-73
2021/12/23 22:19:17;;;;;;;248.25;54.25;;;5.00;99.90;;;;;;2616340;31;20502;-73
2021/12/23 22:21:44;;;;;;;242.70;53.13;;;5.00;99.90;;;;;;2615547;54;20058;-73
2021/12/23 22:24:10;;;;;;;270.73;54.35;;;5.00;99.90;;;;;;2615407;54;20038;-72
2021/12/23 22:26:36;;;;;;;289.30;55.42;;;5.00;99.90;;;;;;2615856;54;20134;-73
2021/12/23 22:29:04;;;;;;;293.88;54.75;;;5.00;99.90;;;;;;2615111;54;20709;-72
2021/12/23 22:31:30;;;;;;;237.30;51.40;;;5.00;99.90;;;;;;2615994;54;20050;-72
2021/12/23 22:33:56;;;;;;;275.77;55.20;;;5.00;99.90;;;;;;2615242;54;20599;-72
2021/12/23 22:36:23;;;;;;;281.05;53.75;;;5.10;99.90;;;;;;2615615;54;20122;-72
2021/12/23 22:38:49;;;;;;;244.65;53.08;;;5.10;99.90;;;;;;2615302;54;20071;-73
2021/12/23 22:41:15;;;;;;;310.13;55.17;;;5.10;99.90;;;;;;2616017;54;20530;-72
2021/12/23 22:43:41;;;;;;;308.83;55.58;;;5.20;99.90;;;;;;2615650;54;20038;-72
2021/12/23 22:46:07;;;;;;;311.73;53.83;;;5.20;99.90;;;;;;2615411;47;20530;-72
2021/12/23 22:48:33;;;;;;;313.25;54.13;;;5.20;99.90;;;;;;2615460;54;20598;-72
2021/12/23 22:50:59;;;;;;;324.83;55.20;;;5.20;99.90;;;;;;2615064;54;20031;-73
2021/12/23 22:53:26;;;;;;;338.27;55.45;;;5.20;99.90;;;;;;2614904;54;20062;-73
2021/12/23 22:55:52;;;;;;;315.73;51.03;;;5.20;99.90;;;;;;2615267;54;20625;-73
2021/12/23 22:58:18;;;;;;;296.48;52.50;;;5.20;99.90;;;;;;2615182;46;20061;-72
2021/12/23 23:00:52;;;;;;;344.20;52.78;;;5.20;99.90;;;;;;2615531;46;20149;-72
2021/12/23 23:03:24;;;;;;;232.13;49.92;;;5.20;99.90;;;;;;2615699;54;20527;-72
2021/12/23 23:05:51;;;;;;;259.45;51.72;;;5.30;99.90;;;;;;2615512;54;20066;-73
2021/12/23 23:08:19;;;;;;;321.63;55.08;;;5.30;99.90;;;;;;2616168;39;20513;-69
2021/12/23 23:10:55;;;;;;;355.10;55.35;;;5.30;99.90;;;;;;2615420;54;20030;-69
2021/12/23 23:13:31;;;;;;;327.75;55.15;;;5.30;99.90;;;;;;2616147;54;20042;-69
2021/12/23 23:18:42;;;;;;;324.85;51.67;;;5.40;99.90;;;;;;2615887;54;20058;-68
2021/12/23 23:21:08;;;;;;;345.25;50.03;;;5.40;99.90;;;;;;2615171;54;20038;-69
2021/12/23 23:24:22;;;;;;;308.13;49.85;;;5.50;99.90;;;;;;2615992;54;20594;-68
2021/12/23 23:35:22;;;;;;;304.42;51.05;;;5.50;99.90;;;;;;2615084;54;20030;-68
2021/12/23 23:40:39;;;;;;;409.25;54.17;;;5.50;99.90;;;;;;2616177;54;20038;-68
2021/12/23 23:43:13;;;;;;;295.08;48.70;;;5.50;99.90;;;;;;2615558;54;20042;-68
2021/12/23 23:45:49;;;;;;;340.80;50.72;;;5.60;99.90;;;;;;2615968;47;20046;-69
2021/12/23 23:48:16;;;;;;;299.48;48.17;;;5.60;99.90;;;;;;2615916;54;20045;-68
2021/12/23 23:50:47;;;;;;;378.58;51.72;;;5.60;99.90;;;;;;2615721;54;20530;-68
2021/12/23 23:53:17;;;;;;;385.38;51.97;;;5.60;99.90;;;;;;2615602;54;20030;-68
2021/12/23 23:55:49;;;;;;;388.15;52.60;;;5.60;99.90;;;;;;2615711;54;20061;-69
2021/12/23 23:58:16;;;;;;;395.40;50.08;;;5.70;99.90;;;;;;2615578;54;20590;-68
